Nulato, Alaska
Current Conditions -  °F | °C
As of 12:53 AM on Sunday 26 Oct 2014 (Local Time) from PAKV Reporting Station
Light Snow Light Snow  
Wind Chill: 29°   Ceiling: 2900
Heat Index: 29°   Visibility: 2mi
Dew Point: 27°   Wind: 0mph
Humidity: 92%   Direction: NA
Pressure: 29.8"   Gusts: NA
Location:  64.72°N, 158.13°W
Report Text: PAKV 260853Z AUTO 00000KT 2SM -SN BR BKN029 OVC050 M02/M03 A2980 RMK AO2 SLP094 P0000 60000 T10171028 400061033 52013 TSNO
Loading
Personal Weather Stations






























Interactive Weather Map New forecast layout! Learn more

10-Day Weather Forecast

Advertisements
Track Severe Weather on mobile